createdAt,value
2023-03-05T00:01:45.907Z,8.00
2023-03-05T00:04:47.895Z,7.45
2023-03-05T00:07:49.926Z,8.10
2023-03-05T00:10:58.863Z,7.78
2023-03-05T00:14:01.595Z,8.00
2023-03-05T00:17:03.601Z,4.97
2023-03-05T00:20:06.015Z,8.38
2023-03-05T00:23:08.104Z,7.03
2023-03-05T00:26:10.195Z,6.78
2023-03-05T00:29:18.455Z,8.00
2023-03-05T00:32:20.545Z,7.90
2023-03-05T00:35:22.876Z,8.75
2023-03-05T00:38:24.926Z,7.57
2023-03-05T00:41:27.600Z,7.65
2023-03-05T00:44:29.602Z,7.80
2023-03-05T00:47:31.570Z,5.75
2023-03-05T00:50:33.648Z,7.35
2023-03-05T00:53:35.951Z,9.20
2023-03-05T00:56:38.024Z,8.07
2023-03-05T00:59:40.370Z,7.93
2023-03-05T01:02:42.471Z,8.38
2023-03-05T01:05:44.517Z,6.50
2023-03-05T01:08:46.622Z,8.73
2023-03-05T01:11:48.852Z,7.93
2023-03-05T01:14:50.854Z,7.57
2023-03-05T01:17:52.911Z,8.68
2023-03-05T01:20:55.114Z,9.90
2023-03-05T01:23:57.150Z,7.50
2023-03-05T01:26:59.133Z,8.30
2023-03-05T01:30:01.271Z,6.22
2023-03-05T01:33:03.783Z,6.85
2023-03-05T01:36:11.446Z,7.88
2023-03-05T01:39:13.835Z,7.28
2023-03-05T01:42:15.778Z,7.93
2023-03-05T01:45:18.455Z,7.40
2023-03-05T01:48:20.501Z,9.80
2023-03-05T01:51:25.258Z,9.35
2023-03-05T01:54:29.479Z,8.27
2023-03-05T01:57:43.510Z,9.25
2023-03-05T02:00:47.043Z,9.15
2023-03-05T02:03:49.226Z,9.88
2023-03-05T02:06:51.717Z,10.05
2023-03-05T02:09:53.811Z,9.57
2023-03-05T02:12:56.925Z,9.90
2023-03-05T02:15:59.923Z,8.93
2023-03-05T02:19:03.221Z,9.05
2023-03-05T02:22:05.289Z,9.27
2023-03-05T02:25:13.415Z,9.83
2023-03-05T02:28:15.435Z,8.40
2023-03-05T02:31:19.244Z,8.95
2023-03-05T02:34:21.884Z,9.32
2023-03-05T02:37:25.098Z,10.48
2023-03-05T02:40:27.310Z,8.60
2023-03-05T02:43:29.411Z,8.77
2023-03-05T02:46:31.475Z,9.40
2023-03-05T02:49:33.705Z,9.45
2023-03-05T02:52:36.082Z,7.60
2023-03-05T02:55:39.980Z,10.17
2023-03-05T02:58:42.178Z,8.40
2023-03-05T03:01:44.309Z,9.85
2023-03-05T03:04:46.340Z,7.70
2023-03-05T03:07:48.353Z,10.48
2023-03-05T03:10:50.473Z,8.75
2023-03-05T03:13:52.539Z,8.63
2023-03-05T03:16:54.575Z,7.23
2023-03-05T03:19:56.588Z,9.45
2023-03-05T03:22:58.594Z,9.15
2023-03-05T03:26:00.599Z,9.17
2023-03-05T03:29:02.643Z,9.90
2023-03-05T03:32:04.874Z,8.50
2023-03-05T03:35:07.511Z,5.82
2023-03-05T03:38:09.576Z,10.38
2023-03-05T03:41:11.608Z,8.13
2023-03-05T03:44:13.966Z,9.00
2023-03-05T03:47:16.353Z,9.00
2023-03-05T03:50:19.045Z,9.32
2023-03-05T03:53:21.074Z,9.70
2023-03-05T03:56:23.146Z,9.03
2023-03-05T03:59:25.203Z,7.43
2023-03-05T04:02:27.583Z,6.70
2023-03-05T04:05:29.557Z,10.25
2023-03-05T04:08:31.557Z,9.63
2023-03-05T04:11:33.875Z,8.52
2023-03-05T04:14:36.187Z,9.80
2023-03-05T04:17:38.356Z,8.17
2023-03-05T04:20:40.387Z,9.32
2023-03-05T04:23:42.364Z,9.30
2023-03-05T04:26:44.303Z,8.63
2023-03-05T04:29:46.338Z,9.50
2023-03-05T04:32:48.311Z,9.80
2023-03-05T04:35:50.520Z,8.05
2023-03-05T04:38:52.507Z,9.75
2023-03-05T04:41:54.485Z,9.32
2023-03-05T04:44:56.482Z,10.02
2023-03-05T04:47:58.712Z,8.67
2023-03-05T04:51:00.725Z,8.55
2023-03-05T04:54:02.766Z,9.93
2023-03-05T04:57:04.776Z,9.97
2023-03-05T05:00:12.468Z,7.30
2023-03-05T05:03:14.598Z,11.27
2023-03-05T05:06:16.600Z,9.57
2023-03-05T05:09:18.626Z,8.77
2023-03-05T05:12:20.749Z,7.15
2023-03-05T05:15:22.813Z,8.48
2023-03-05T05:18:25.094Z,9.83
2023-03-05T05:21:27.075Z,10.13
2023-03-05T05:24:29.128Z,8.32
2023-03-05T05:27:31.191Z,9.57
2023-03-05T05:30:33.230Z,8.52
2023-03-05T05:33:35.352Z,8.82
2023-03-05T05:36:37.351Z,9.10
2023-03-05T05:39:39.398Z,9.88
2023-03-05T05:42:41.495Z,9.05
2023-03-05T05:45:43.763Z,9.95
2023-03-05T05:48:45.937Z,7.60
2023-03-05T05:51:47.975Z,9.10
2023-03-05T05:54:50.061Z,8.48
2023-03-05T05:57:52.035Z,8.40
2023-03-05T06:00:54.067Z,7.60
2023-03-05T06:03:56.280Z,7.85
2023-03-05T06:06:58.955Z,9.13
2023-03-05T06:10:01.002Z,8.05
2023-03-05T06:13:02.991Z,9.32
2023-03-05T06:16:06.678Z,8.55
2023-03-05T06:19:09.358Z,9.70
2023-03-05T06:22:11.487Z,9.77
2023-03-05T06:25:13.546Z,8.88
2023-03-05T06:28:15.551Z,8.77
2023-03-05T06:31:19.640Z,7.18
2023-03-05T06:34:21.855Z,7.38
2023-03-05T06:37:23.876Z,9.98
2023-03-05T06:40:25.967Z,8.80
2023-03-05T06:43:28.046Z,9.65
2023-03-05T06:46:31.379Z,8.82
2023-03-05T06:49:33.444Z,9.43
2023-03-05T06:52:35.427Z,9.25
2023-03-05T06:55:39.826Z,9.30
2023-03-05T06:58:42.426Z,8.10
2023-03-05T07:01:44.896Z,5.75
2023-03-05T07:04:47.107Z,7.55
2023-03-05T07:07:49.059Z,9.20
2023-03-05T07:10:51.098Z,8.13
2023-03-05T07:13:53.261Z,7.25
2023-03-05T07:16:55.289Z,9.45
2023-03-05T07:19:57.281Z,8.10
2023-03-05T07:22:59.335Z,7.45
2023-03-05T07:26:01.962Z,7.75
2023-03-05T07:29:04.202Z,8.67
2023-03-05T07:32:06.222Z,9.02
2023-03-05T07:35:08.460Z,9.98
2023-03-05T07:38:10.446Z,10.25
2023-03-05T07:41:13.801Z,8.43
2023-03-05T07:44:16.834Z,9.60
2023-03-05T07:47:19.035Z,9.25
2023-03-05T07:50:21.060Z,9.23
2023-03-05T07:53:23.207Z,8.93
2023-03-05T07:56:32.470Z,7.95
2023-03-05T07:59:34.548Z,7.73
2023-03-05T08:02:36.547Z,7.50
2023-03-05T08:05:41.607Z,9.30
2023-03-05T08:08:43.674Z,7.45
2023-03-05T08:11:45.694Z,9.35
2023-03-05T08:14:48.013Z,8.18
2023-03-05T08:17:49.938Z,8.65
2023-03-05T08:20:51.995Z,10.10
2023-03-05T08:23:54.030Z,7.95
2023-03-05T08:26:57.456Z,9.48
2023-03-05T08:30:00.982Z,9.40
2023-03-05T08:33:03.008Z,8.82
2023-03-05T08:36:05.216Z,10.02
2023-03-05T08:39:08.638Z,7.40
2023-03-05T08:42:10.673Z,10.10
2023-03-05T08:45:12.850Z,8.73
2023-03-05T08:48:15.277Z,9.88
2023-03-05T08:51:18.626Z,8.83
2023-03-05T08:54:20.596Z,8.18
2023-03-05T08:57:22.604Z,9.05
2023-03-05T09:00:24.639Z,6.30
2023-03-05T09:03:26.946Z,8.45
2023-03-05T09:06:29.467Z,7.88
2023-03-05T09:09:33.021Z,10.32
2023-03-05T09:12:35.022Z,10.02
2023-03-05T09:15:37.216Z,6.63
2023-03-05T09:18:40.317Z,7.85
2023-03-05T09:21:42.435Z,10.57
2023-03-05T09:24:44.427Z,9.77
2023-03-05T09:27:46.454Z,8.10
2023-03-05T09:30:48.918Z,8.83
2023-03-05T09:33:51.013Z,8.48
2023-03-05T09:36:53.094Z,9.13
2023-03-05T09:39:55.597Z,11.18
2023-03-05T09:42:57.637Z,10.85
2023-03-05T09:46:12.019Z,10.95
2023-03-05T09:49:16.170Z,11.27
2023-03-05T09:52:22.796Z,11.13
2023-03-05T09:55:36.922Z,10.07
2023-03-05T09:58:42.000Z,8.70
2023-03-05T10:01:44.895Z,9.00
2023-03-05T10:04:50.003Z,10.40
2023-03-05T10:08:01.203Z,8.73
2023-03-05T10:11:05.380Z,9.93
2023-03-05T10:14:13.876Z,9.70
2023-03-05T10:17:21.741Z,10.43
2023-03-05T10:20:42.839Z,8.85
2023-03-05T10:23:50.870Z,9.43
2023-03-05T10:27:02.044Z,9.43
2023-03-05T10:30:42.577Z,8.68
2023-03-05T10:33:47.131Z,9.70
2023-03-05T10:36:56.682Z,9.05
2023-03-05T10:40:16.421Z,8.80
2023-03-05T10:43:23.996Z,9.63
2023-03-05T10:46:29.263Z,12.02
2023-03-05T10:49:35.246Z,9.55
2023-03-05T10:52:40.726Z,7.47
2023-03-05T10:55:42.783Z,8.47
2023-03-05T10:58:44.762Z,8.52
2023-03-05T11:02:01.280Z,7.97
2023-03-05T11:05:05.213Z,8.50
2023-03-05T11:08:24.306Z,7.97
2023-03-05T11:11:26.394Z,7.72
2023-03-05T11:14:33.461Z,8.52
2023-03-05T11:17:37.484Z,9.02
2023-03-05T11:20:40.009Z,8.70
2023-03-05T11:23:41.997Z,6.53
2023-03-05T11:26:51.303Z,8.10
2023-03-05T11:29:53.456Z,7.40
2023-03-05T11:33:14.526Z,7.30
2023-03-05T11:36:19.407Z,7.43
2023-03-05T11:39:22.653Z,8.00
2023-03-05T11:42:25.542Z,7.72
2023-03-05T11:45:28.353Z,7.30
2023-03-05T11:48:37.128Z,7.40
2023-03-05T11:51:48.929Z,6.15
2023-03-05T11:54:58.546Z,7.07
2023-03-05T11:58:12.515Z,7.70
2023-03-05T12:01:16.150Z,9.88
2023-03-05T12:04:18.990Z,7.50
2023-03-05T12:07:25.293Z,8.82
2023-03-05T12:10:28.399Z,7.93
2023-03-05T12:13:30.448Z,9.35
2023-03-05T12:16:32.438Z,8.95
2023-03-05T12:19:41.389Z,9.70
2023-03-05T12:22:43.630Z,8.77
2023-03-05T12:25:48.800Z,10.32
2023-03-05T12:28:54.307Z,8.02
2023-03-05T12:31:56.734Z,8.65
2023-03-05T12:34:59.503Z,8.55
2023-03-05T12:38:06.207Z,10.02
2023-03-05T12:41:26.941Z,5.17
2023-03-05T12:44:30.074Z,5.28
2023-03-05T12:47:32.113Z,4.65
2023-03-05T12:50:47.340Z,6.03
2023-03-05T12:53:51.288Z,4.20
2023-03-05T12:56:54.887Z,6.00
2023-03-05T13:00:08.667Z,5.38
2023-03-05T13:03:22.429Z,5.72
2023-03-05T13:06:29.236Z,6.88
2023-03-05T13:09:33.760Z,4.78
2023-03-05T13:12:36.398Z,4.57
2023-03-05T13:15:38.842Z,4.25
2023-03-05T13:18:42.049Z,5.15
2023-03-05T13:21:44.228Z,5.70
2023-03-05T13:24:47.221Z,5.85
2023-03-05T13:27:49.300Z,6.20
2023-03-05T13:30:56.702Z,6.22
2023-03-05T13:34:05.533Z,7.43
2023-03-05T13:37:16.740Z,6.63
2023-03-05T13:40:20.924Z,5.60
2023-03-05T13:43:22.920Z,6.77
2023-03-05T13:46:27.986Z,6.00
2023-03-05T13:49:30.007Z,7.97
2023-03-05T13:52:33.464Z,6.63
2023-03-05T13:55:35.516Z,6.43
2023-03-05T13:58:48.268Z,6.70
2023-03-05T14:01:51.021Z,6.50
2023-03-05T14:04:53.121Z,4.40
2023-03-05T14:07:56.788Z,6.30
2023-03-05T14:11:00.540Z,7.07
2023-03-05T14:14:06.793Z,6.05
2023-03-05T14:17:23.323Z,6.00
2023-03-05T14:20:30.015Z,6.28
2023-03-05T14:23:32.058Z,5.45
2023-03-05T14:26:40.668Z,7.57
2023-03-05T14:29:46.908Z,7.15
2023-03-05T14:32:49.716Z,7.28
2023-03-05T14:35:52.187Z,5.60
2023-03-05T14:38:54.272Z,5.40
2023-03-05T14:41:56.720Z,7.35
2023-03-05T14:45:00.392Z,8.13
2023-03-05T14:48:03.649Z,6.07
2023-03-05T14:51:07.095Z,5.07
2023-03-05T14:54:22.591Z,6.18
2023-03-05T14:57:29.105Z,5.97
2023-03-05T15:00:31.198Z,5.38
2023-03-05T15:03:33.586Z,4.03
2023-03-05T15:06:38.154Z,5.25
2023-03-05T15:09:40.267Z,5.75
2023-03-05T15:12:42.696Z,4.32
2023-03-05T15:15:45.324Z,5.40
2023-03-05T15:18:47.490Z,4.20
2023-03-05T15:21:49.558Z,4.60
2023-03-05T15:24:51.623Z,4.03
2023-03-05T15:27:53.713Z,4.63
2023-03-05T15:30:58.140Z,4.88
2023-03-05T15:34:02.079Z,5.20
2023-03-05T15:37:04.383Z,4.60
2023-03-05T15:40:06.730Z,4.38
2023-03-05T15:43:09.436Z,5.85
2023-03-05T15:46:11.508Z,4.38
2023-03-05T15:49:14.041Z,5.80
2023-03-05T15:52:16.017Z,5.68
2023-03-05T15:55:20.731Z,6.63
2023-03-05T15:58:22.700Z,4.77
2023-03-05T16:01:24.749Z,5.03
2023-03-05T16:04:26.794Z,5.05
2023-03-05T16:07:30.065Z,5.78
2023-03-05T16:10:33.038Z,5.88
2023-03-05T16:13:35.204Z,6.28
2023-03-05T16:16:38.245Z,6.80
2023-03-05T16:19:41.813Z,6.03
2023-03-05T16:22:44.555Z,7.43
2023-03-05T16:25:46.681Z,6.65
2023-03-05T16:28:48.692Z,6.77
2023-03-05T16:31:50.714Z,6.70
2023-03-05T16:34:52.793Z,6.30
2023-03-05T16:37:54.811Z,5.85
2023-03-05T16:41:07.890Z,5.22
2023-03-05T16:44:11.054Z,6.53
2023-03-05T16:47:13.123Z,7.25
2023-03-05T16:50:15.141Z,7.07
2023-03-05T16:53:17.156Z,6.70
2023-03-05T16:56:19.238Z,7.30
2023-03-05T16:59:21.209Z,7.37
2023-03-05T17:02:23.275Z,7.30
2023-03-05T17:05:28.282Z,6.18
2023-03-05T17:08:30.269Z,7.05
2023-03-05T17:11:32.258Z,8.18
2023-03-05T17:14:34.273Z,8.50
2023-03-05T17:17:37.828Z,9.95
2023-03-05T17:20:40.807Z,11.10
2023-03-05T17:23:43.024Z,11.05
2023-03-05T17:26:46.016Z,14.00
2023-03-05T17:29:48.139Z,10.27
2023-03-05T17:32:51.923Z,9.98
2023-03-05T17:35:54.029Z,9.00
2023-03-05T17:38:56.146Z,8.68
2023-03-05T17:41:58.180Z,7.30
2023-03-05T17:45:00.231Z,6.10
2023-03-05T17:48:02.516Z,7.57
2023-03-05T17:51:05.180Z,7.67
2023-03-05T17:54:07.196Z,7.57
2023-03-05T17:57:09.282Z,5.82
2023-03-05T18:00:16.719Z,6.50
2023-03-05T18:03:18.736Z,6.20
2023-03-05T18:06:20.747Z,5.85
2023-03-05T18:09:22.758Z,6.78
2023-03-05T18:12:24.943Z,5.78
2023-03-05T18:15:27.773Z,5.53
2023-03-05T18:18:29.801Z,7.50
2023-03-05T18:21:31.838Z,5.53
2023-03-05T18:24:33.857Z,4.20
2023-03-05T18:27:35.943Z,5.20
2023-03-05T18:30:38.331Z,4.93
2023-03-05T18:33:40.807Z,6.47
2023-03-05T18:36:42.796Z,6.28
2023-03-05T18:39:44.767Z,5.72
2023-03-05T18:42:46.743Z,6.35
2023-03-05T18:45:53.002Z,6.65
2023-03-05T18:48:55.092Z,5.68
2023-03-05T18:51:57.089Z,6.03
2023-03-05T18:54:59.118Z,5.43
2023-03-05T18:58:01.243Z,5.57
2023-03-05T19:01:03.719Z,5.37
2023-03-05T19:04:05.828Z,5.22
2023-03-05T19:07:07.916Z,6.07
2023-03-05T19:10:11.206Z,7.32
2023-03-05T19:13:35.947Z,6.88
2023-03-05T19:16:43.533Z,6.63
2023-03-05T19:19:55.464Z,7.03
2023-03-05T19:22:57.489Z,6.40
2023-03-05T19:26:00.563Z,7.43
2023-03-05T19:29:02.593Z,7.63
2023-03-05T19:32:05.183Z,10.80
2023-03-05T19:35:07.362Z,10.55
2023-03-05T19:38:09.378Z,9.93
2023-03-05T19:41:12.974Z,8.80
2023-03-05T19:44:15.154Z,9.60
2023-03-05T19:47:17.191Z,8.40
2023-03-05T19:50:19.236Z,8.85
2023-03-05T19:53:21.322Z,6.60
2023-03-05T19:56:23.494Z,5.85
2023-03-05T19:59:25.727Z,6.63
2023-03-05T20:02:27.702Z,7.27
2023-03-05T20:05:29.703Z,7.13
2023-03-05T20:08:32.249Z,7.40
2023-03-05T20:11:34.318Z,12.38
2023-03-05T20:14:36.390Z,7.47
2023-03-05T20:17:38.495Z,6.90
2023-03-05T20:20:40.498Z,7.65
2023-03-05T20:23:42.539Z,5.47
2023-03-05T20:26:45.520Z,6.25
2023-03-05T20:29:47.507Z,6.65
2023-03-05T20:32:49.517Z,6.43
2023-03-05T20:35:51.753Z,6.03
2023-03-05T20:38:53.849Z,5.35
2023-03-05T20:41:55.858Z,5.20
2023-03-05T20:44:57.811Z,5.13
2023-03-05T20:47:59.828Z,6.13
2023-03-05T20:51:12.182Z,6.80
2023-03-05T20:54:14.212Z,5.47
2023-03-05T20:57:16.185Z,5.80
2023-03-05T21:00:18.289Z,5.40
2023-03-05T21:03:20.311Z,10.33
2023-03-05T21:06:22.383Z,7.13
2023-03-05T21:09:24.543Z,6.60
2023-03-05T21:12:26.562Z,5.53
2023-03-05T21:15:29.220Z,9.55
2023-03-05T21:18:31.587Z,7.03
2023-03-05T21:21:33.666Z,8.48
2023-03-05T21:24:52.134Z,8.30
2023-03-05T21:28:16.471Z,7.32
2023-03-05T21:31:20.199Z,6.50
2023-03-05T21:34:22.201Z,8.07
2023-03-05T21:37:24.241Z,7.32
2023-03-05T21:40:26.794Z,6.13
2023-03-05T21:43:29.483Z,6.70
2023-03-05T21:46:31.593Z,7.47
2023-03-05T21:49:33.825Z,6.75
2023-03-05T21:52:35.839Z,6.50
2023-03-05T21:56:00.938Z,5.67
2023-03-05T21:59:03.161Z,6.43
2023-03-05T22:02:05.308Z,5.68
2023-03-05T22:05:08.159Z,5.93
2023-03-05T22:08:10.191Z,5.85
2023-03-05T22:11:13.300Z,8.18
2023-03-05T22:14:16.926Z,6.90
2023-03-05T22:17:20.002Z,6.20
2023-03-05T22:20:22.016Z,6.85
2023-03-05T22:23:25.323Z,7.00
2023-03-05T22:26:34.433Z,5.63
2023-03-05T22:29:36.406Z,5.40
2023-03-05T22:32:38.986Z,4.75
2023-03-05T22:35:41.608Z,5.50
2023-03-05T22:38:43.983Z,6.35
2023-03-05T22:41:46.082Z,5.32
2023-03-05T22:44:48.184Z,5.40
2023-03-05T22:47:50.589Z,4.30
2023-03-05T22:50:55.757Z,5.13
2023-03-05T22:53:57.819Z,5.97
2023-03-05T22:56:59.803Z,5.20
2023-03-05T23:00:01.856Z,6.32
2023-03-05T23:03:04.004Z,6.32
2023-03-05T23:06:06.426Z,6.00
2023-03-05T23:09:08.465Z,5.70
2023-03-05T23:12:11.448Z,6.00
2023-03-05T23:15:15.009Z,5.15
2023-03-05T23:18:17.053Z,7.10
2023-03-05T23:21:19.069Z,7.68
2023-03-05T23:24:21.060Z,6.55
2023-03-05T23:27:23.054Z,6.47
2023-03-05T23:30:29.184Z,6.60
2023-03-05T23:33:31.179Z,6.38
2023-03-05T23:36:33.183Z,6.30
2023-03-05T23:39:35.159Z,5.72
2023-03-05T23:42:38.273Z,6.63
2023-03-05T23:45:41.569Z,5.75
2023-03-05T23:48:43.630Z,5.82
2023-03-05T23:51:45.636Z,6.20
2023-03-05T23:54:47.666Z,5.60
2023-03-05T23:57:49.749Z,6.63
